sensor_id;sensor_type;location;lat;lon;timestamp;pressure;altitude;pressure_sealevel;temperature;humidity
10310;BME280;5200;43.236;27.986;2022-09-30T00:01:18;99549.88;;;17.51;100.00
10310;BME280;5200;43.236;27.986;2022-09-30T00:03:45;99563.25;;;17.58;100.00
10310;BME280;5200;43.236;27.986;2022-09-30T00:06:14;99572.88;;;17.59;100.00
10310;BME280;5200;43.236;27.986;2022-09-30T00:08:41;99559.94;;;17.56;100.00
10310;BME280;5200;43.236;27.986;2022-09-30T00:11:12;99557.22;;;17.49;100.00
10310;BME280;5200;43.236;27.986;2022-09-30T00:13:41;99565.47;;;17.54;100.00
10310;BME280;5200;43.236;27.986;2022-09-30T00:16:11;99567.94;;;17.56;100.00
10310;BME280;5200;43.236;27.986;2022-09-30T00:18:39;99576.53;;;17.58;100.00
10310;BME280;5200;43.236;27.986;2022-09-30T00:21:07;99575.53;;;17.59;100.00
10310;BME280;5200;43.236;27.986;2022-09-30T00:23:35;99570.81;;;17.54;100.00
10310;BME280;5200;43.236;27.986;2022-09-30T00:26:04;99573.00;;;17.51;100.00
10310;BME280;5200;43.236;27.986;2022-09-30T00:28:33;99562.94;;;17.46;100.00
10310;BME280;5200;43.236;27.986;2022-09-30T00:31:02;99570.28;;;17.44;100.00
10310;BME280;5200;43.236;27.986;2022-09-30T00:33:30;99582.19;;;17.48;100.00
10310;BME280;5200;43.236;27.986;2022-09-30T00:35:56;99581.38;;;17.48;100.00
10310;BME280;5200;43.236;27.986;2022-09-30T00:38:23;99581.97;;;17.43;100.00
10310;BME280;5200;43.236;27.986;2022-09-30T00:40:51;99590.75;;;17.44;100.00
10310;BME280;5200;43.236;27.986;2022-09-30T00:43:36;99585.38;;;17.37;100.00
10310;BME280;5200;43.236;27.986;2022-09-30T00:46:15;99592.16;;;17.40;100.00
10310;BME280;5200;43.236;27.986;2022-09-30T00:48:42;99594.16;;;17.38;100.00
10310;BME280;5200;43.236;27.986;2022-09-30T00:51:09;99594.56;;;17.35;100.00
10310;BME280;5200;43.236;27.986;2022-09-30T00:53:41;99607.84;;;17.35;100.00
10310;BME280;5200;43.236;27.986;2022-09-30T00:56:13;99600.63;;;17.28;100.00
10310;BME280;5200;43.236;27.986;2022-09-30T00:58:46;99604.94;;;17.29;100.00
10310;BME280;5200;43.236;27.986;2022-09-30T01:01:16;99602.13;;;17.31;100.00
10310;BME280;5200;43.236;27.986;2022-09-30T01:03:46;99600.03;;;17.26;100.00
10310;BME280;5200;43.236;27.986;2022-09-30T01:06:14;99607.63;;;17.29;100.00
10310;BME280;5200;43.236;27.986;2022-09-30T01:08:43;99603.28;;;17.28;100.00
10310;BME280;5200;43.236;27.986;2022-09-30T01:11:11;99606.97;;;17.27;100.00
10310;BME280;5200;43.236;27.986;2022-09-30T01:13:40;99611.09;;;17.30;100.00
10310;BME280;5200;43.236;27.986;2022-09-30T01:16:25;99604.13;;;17.29;100.00
10310;BME280;5200;43.236;27.986;2022-09-30T01:19:04;99602.28;;;17.29;100.00
10310;BME280;5200;43.236;27.986;2022-09-30T01:21:58;99598.81;;;17.29;100.00
10310;BME280;5200;43.236;27.986;2022-09-30T01:24:39;99579.25;;;17.15;100.00
10310;BME280;5200;43.236;27.986;2022-09-30T01:27:16;99599.47;;;17.38;100.00
10310;BME280;5200;43.236;27.986;2022-09-30T01:30:03;99605.09;;;17.49;100.00
10310;BME280;5200;43.236;27.986;2022-09-30T01:32:45;99605.56;;;17.53;100.00
10310;BME280;5200;43.236;27.986;2022-09-30T01:35:21;99604.41;;;17.62;100.00
10310;BME280;5200;43.236;27.986;2022-09-30T01:37:59;99593.59;;;17.70;100.00
10310;BME280;5200;43.236;27.986;2022-09-30T01:40:34;99595.91;;;17.73;100.00
10310;BME280;5200;43.236;27.986;2022-09-30T01:43:07;99593.25;;;17.73;100.00
10310;BME280;5200;43.236;27.986;2022-09-30T01:45:42;99601.44;;;17.79;100.00
10310;BME280;5200;43.236;27.986;2022-09-30T01:48:16;99598.34;;;17.75;100.00
10310;BME280;5200;43.236;27.986;2022-09-30T01:50:49;99602.94;;;17.81;100.00
10310;BME280;5200;43.236;27.986;2022-09-30T01:53:22;99594.13;;;17.81;100.00
10310;BME280;5200;43.236;27.986;2022-09-30T01:55:56;99594.75;;;17.83;100.00
10310;BME280;5200;43.236;27.986;2022-09-30T01:58:34;99605.81;;;17.86;100.00
10310;BME280;5200;43.236;27.986;2022-09-30T02:01:07;99606.63;;;17.87;99.34
10310;BME280;5200;43.236;27.986;2022-09-30T02:03:40;99613.72;;;17.80;99.00
10310;BME280;5200;43.236;27.986;2022-09-30T02:06:12;99620.91;;;17.79;98.59
10310;BME280;5200;43.236;27.986;2022-09-30T02:08:45;99626.69;;;17.83;98.05
10310;BME280;5200;43.236;27.986;2022-09-30T02:11:17;99618.09;;;17.81;97.64
10310;BME280;5200;43.236;27.986;2022-09-30T02:13:48;99623.41;;;17.81;97.16
10310;BME280;5200;43.236;27.986;2022-09-30T02:16:22;99622.75;;;17.79;96.66
10310;BME280;5200;43.236;27.986;2022-09-30T02:18:52;99626.88;;;17.81;96.20
10310;BME280;5200;43.236;27.986;2022-09-30T02:21:26;99628.72;;;17.81;96.16
10310;BME280;5200;43.236;27.986;2022-09-30T02:23:57;99632.34;;;17.80;95.81
10310;BME280;5200;43.236;27.986;2022-09-30T02:26:28;99634.88;;;17.81;95.68
10310;BME280;5200;43.236;27.986;2022-09-30T02:28:59;99652.41;;;17.75;95.48
10310;BME280;5200;43.236;27.986;2022-09-30T02:31:30;99650.50;;;17.69;95.64
10310;BME280;5200;43.236;27.986;2022-09-30T02:34:03;99657.91;;;17.74;95.60
10310;BME280;5200;43.236;27.986;2022-09-30T02:36:37;99656.56;;;17.85;94.14
10310;BME280;5200;43.236;27.986;2022-09-30T02:39:09;99656.19;;;17.88;92.61
10310;BME280;5200;43.236;27.986;2022-09-30T02:41:44;99644.28;;;17.84;92.65
10310;BME280;5200;43.236;27.986;2022-09-30T02:44:14;99651.06;;;17.86;92.66
10310;BME280;5200;43.236;27.986;2022-09-30T02:46:52;99643.78;;;17.73;93.73
10310;BME280;5200;43.236;27.986;2022-09-30T02:49:28;99655.59;;;17.64;94.53
10310;BME280;5200;43.236;27.986;2022-09-30T02:52:06;99658.34;;;17.56;95.07
10310;BME280;5200;43.236;27.986;2022-09-30T02:54:47;99649.50;;;17.49;95.89
10310;BME280;5200;43.236;27.986;2022-09-30T02:57:21;99632.28;;;17.45;95.33
10310;BME280;5200;43.236;27.986;2022-09-30T02:59:50;99662.22;;;17.53;95.70
10310;BME280;5200;43.236;27.986;2022-09-30T03:02:18;99666.91;;;17.51;96.02
10310;BME280;5200;43.236;27.986;2022-09-30T03:04:48;99668.94;;;17.49;96.06
10310;BME280;5200;43.236;27.986;2022-09-30T03:07:16;99662.72;;;17.42;96.16
10310;BME280;5200;43.236;27.986;2022-09-30T03:09:43;99663.94;;;17.40;96.18
10310;BME280;5200;43.236;27.986;2022-09-30T03:12:18;99662.44;;;17.52;95.30
10310;BME280;5200;43.236;27.986;2022-09-30T03:15:09;99665.97;;;17.59;94.94
10310;BME280;5200;43.236;27.986;2022-09-30T03:17:58;99669.25;;;17.61;94.54
10310;BME280;5200;43.236;27.986;2022-09-30T03:20:45;99668.25;;;17.62;93.82
10310;BME280;5200;43.236;27.986;2022-09-30T03:23:38;99652.56;;;17.46;93.32
10310;BME280;5200;43.236;27.986;2022-09-30T03:26:17;99647.00;;;17.41;93.70
10310;BME280;5200;43.236;27.986;2022-09-30T03:28:53;99683.97;;;17.57;93.57
10310;BME280;5200;43.236;27.986;2022-09-30T03:31:34;99675.78;;;17.59;93.12
10310;BME280;5200;43.236;27.986;2022-09-30T03:34:11;99677.22;;;17.61;93.11
10310;BME280;5200;43.236;27.986;2022-09-30T03:36:50;99685.03;;;17.63;92.88
10310;BME280;5200;43.236;27.986;2022-09-30T03:39:25;99688.66;;;17.55;93.23
10310;BME280;5200;43.236;27.986;2022-09-30T03:41:57;99697.75;;;17.46;93.65
10310;BME280;5200;43.236;27.986;2022-09-30T03:44:31;99689.91;;;17.38;94.19
10310;BME280;5200;43.236;27.986;2022-09-30T03:47:02;99695.03;;;17.39;94.75
10310;BME280;5200;43.236;27.986;2022-09-30T03:49:34;99691.81;;;17.44;94.66
10310;BME280;5200;43.236;27.986;2022-09-30T03:52:07;99690.28;;;17.56;93.35
10310;BME280;5200;43.236;27.986;2022-09-30T03:54:44;99685.47;;;17.66;91.46
10310;BME280;5200;43.236;27.986;2022-09-30T03:57:11;99675.97;;;17.57;90.74
10310;BME280;5200;43.236;27.986;2022-09-30T03:59:38;99694.06;;;17.68;89.91
10310;BME280;5200;43.236;27.986;2022-09-30T04:02:05;99693.25;;;17.68;90.59
10310;BME280;5200;43.236;27.986;2022-09-30T04:04:34;99700.03;;;17.70;90.68
10310;BME280;5200;43.236;27.986;2022-09-30T04:07:01;99699.84;;;17.72;90.32
10310;BME280;5200;43.236;27.986;2022-09-30T04:09:30;99694.22;;;17.82;88.56
10310;BME280;5200;43.236;27.986;2022-09-30T04:11:56;99684.44;;;17.89;87.17
10310;BME280;5200;43.236;27.986;2022-09-30T04:14:23;99692.31;;;17.97;86.11
10310;BME280;5200;43.236;27.986;2022-09-30T04:16:50;99689.13;;;18.15;86.70
10310;BME280;5200;43.236;27.986;2022-09-30T04:19:17;99708.38;;;18.45;86.02
10310;BME280;5200;43.236;27.986;2022-09-30T04:21:44;99706.66;;;18.66;84.58
10310;BME280;5200;43.236;27.986;2022-09-30T04:24:11;99709.34;;;18.72;83.81
10310;BME280;5200;43.236;27.986;2022-09-30T04:26:40;99706.69;;;18.72;83.91
10310;BME280;5200;43.236;27.986;2022-09-30T04:29:06;99719.81;;;18.74;84.69
10310;BME280;5200;43.236;27.986;2022-09-30T04:31:33;99719.47;;;18.77;85.39
10310;BME280;5200;43.236;27.986;2022-09-30T04:34:00;99721.72;;;18.80;86.21
10310;BME280;5200;43.236;27.986;2022-09-30T04:36:27;99728.53;;;18.89;86.82
10310;BME280;5200;43.236;27.986;2022-09-30T04:38:54;99722.38;;;18.95;87.36
10310;BME280;5200;43.236;27.986;2022-09-30T04:41:22;99739.69;;;19.13;87.63
10310;BME280;5200;43.236;27.986;2022-09-30T04:43:51;99737.09;;;19.26;87.53
10310;BME280;5200;43.236;27.986;2022-09-30T04:46:19;99741.19;;;19.35;87.65
10310;BME280;5200;43.236;27.986;2022-09-30T04:48:47;99753.53;;;19.56;87.31
10310;BME280;5200;43.236;27.986;2022-09-30T04:51:16;99750.94;;;19.76;86.56
10310;BME280;5200;43.236;27.986;2022-09-30T04:53:43;99747.88;;;19.86;85.55
10310;BME280;5200;43.236;27.986;2022-09-30T04:56:10;99755.91;;;19.99;84.76
10310;BME280;5200;43.236;27.986;2022-09-30T04:58:37;99751.78;;;19.97;84.88
10310;BME280;5200;43.236;27.986;2022-09-30T05:01:08;99761.66;;;20.16;84.70
10310;BME280;5200;43.236;27.986;2022-09-30T05:03:36;99763.91;;;20.33;84.41
10310;BME280;5200;43.236;27.986;2022-09-30T05:06:04;99770.28;;;20.58;84.05
10310;BME280;5200;43.236;27.986;2022-09-30T05:08:31;99769.75;;;20.88;83.48
10310;BME280;5200;43.236;27.986;2022-09-30T05:11:00;99780.34;;;21.21;82.18
10310;BME280;5200;43.236;27.986;2022-09-30T05:13:31;99774.47;;;21.51;81.16
10310;BME280;5200;43.236;27.986;2022-09-30T05:15:58;99770.38;;;21.80;80.16
10310;BME280;5200;43.236;27.986;2022-09-30T05:18:27;99775.06;;;22.10;78.59
10310;BME280;5200;43.236;27.986;2022-09-30T05:20:56;99767.66;;;22.37;76.47
10310;BME280;5200;43.236;27.986;2022-09-30T05:23:24;99770.00;;;22.70;74.89
10310;BME280;5200;43.236;27.986;2022-09-30T05:25:51;99775.25;;;23.02;72.41
10310;BME280;5200;43.236;27.986;2022-09-30T05:28:18;99774.34;;;23.27;71.53
10310;BME280;5200;43.236;27.986;2022-09-30T05:30:45;99763.81;;;23.55;70.57
10310;BME280;5200;43.236;27.986;2022-09-30T05:33:14;99780.75;;;23.86;68.64
10310;BME280;5200;43.236;27.986;2022-09-30T05:35:42;99778.91;;;23.98;67.20
10310;BME280;5200;43.236;27.986;2022-09-30T05:38:09;99780.31;;;24.13;65.69
10310;BME280;5200;43.236;27.986;2022-09-30T05:40:36;99782.22;;;24.36;65.61
10310;BME280;5200;43.236;27.986;2022-09-30T05:43:04;99774.41;;;24.58;63.28
10310;BME280;5200;43.236;27.986;2022-09-30T05:45:32;99771.81;;;24.75;62.17
10310;BME280;5200;43.236;27.986;2022-09-30T05:47:59;99765.00;;;24.96;60.58
10310;BME280;5200;43.236;27.986;2022-09-30T05:50:27;99763.88;;;25.20;60.81
10310;BME280;5200;43.236;27.986;2022-09-30T05:52:55;99758.31;;;25.39;59.50
10310;BME280;5200;43.236;27.986;2022-09-30T05:55:22;99762.25;;;25.48;58.62
10310;BME280;5200;43.236;27.986;2022-09-30T05:57:50;99762.69;;;25.57;57.27
10310;BME280;5200;43.236;27.986;2022-09-30T06:00:18;99765.13;;;25.58;56.58
10310;BME280;5200;43.236;27.986;2022-09-30T06:02:50;99770.72;;;25.68;55.27
10310;BME280;5200;43.236;27.986;2022-09-30T06:05:17;99770.88;;;25.79;54.66
10310;BME280;5200;43.236;27.986;2022-09-30T06:07:44;99766.84;;;25.93;54.88
10310;BME280;5200;43.236;27.986;2022-09-30T06:10:12;99766.84;;;25.93;54.61
10310;BME280;5200;43.236;27.986;2022-09-30T06:12:39;99779.56;;;25.98;54.71
10310;BME280;5200;43.236;27.986;2022-09-30T06:15:07;99777.59;;;26.10;53.50
10310;BME280;5200;43.236;27.986;2022-09-30T06:17:34;99779.34;;;26.16;51.87
10310;BME280;5200;43.236;27.986;2022-09-30T06:20:01;99781.78;;;26.18;52.13
10310;BME280;5200;43.236;27.986;2022-09-30T06:22:31;99776.28;;;26.12;52.58
10310;BME280;5200;43.236;27.986;2022-09-30T06:25:01;99789.69;;;26.07;52.76
10310;BME280;5200;43.236;27.986;2022-09-30T06:27:29;99785.13;;;26.08;53.59
10310;BME280;5200;43.236;27.986;2022-09-30T06:29:56;99792.47;;;26.12;53.91
10310;BME280;5200;43.236;27.986;2022-09-30T06:32:23;99795.50;;;26.16;53.65
10310;BME280;5200;43.236;27.986;2022-09-30T06:34:51;99796.41;;;26.22;52.52
10310;BME280;5200;43.236;27.986;2022-09-30T06:37:20;99806.53;;;26.31;53.51
10310;BME280;5200;43.236;27.986;2022-09-30T06:39:47;99802.19;;;26.47;54.17
10310;BME280;5200;43.236;27.986;2022-09-30T06:42:14;99814.84;;;26.64;53.57
10310;BME280;5200;43.236;27.986;2022-09-30T06:44:43;99820.41;;;26.57;52.61
10310;BME280;5200;43.236;27.986;2022-09-30T06:47:11;99819.94;;;26.60;53.32
10310;BME280;5200;43.236;27.986;2022-09-30T06:49:37;99817.22;;;26.77;54.01
10310;BME280;5200;43.236;27.986;2022-09-30T06:52:04;99829.22;;;26.86;55.35
10310;BME280;5200;43.236;27.986;2022-09-30T06:54:31;99833.19;;;27.01;55.33
10310;BME280;5200;43.236;27.986;2022-09-30T06:56:58;99836.00;;;27.11;55.73
10310;BME280;5200;43.236;27.986;2022-09-30T06:59:26;99846.53;;;27.29;54.94
10310;BME280;5200;43.236;27.986;2022-09-30T07:01:54;99848.78;;;27.37;55.01
10310;BME280;5200;43.236;27.986;2022-09-30T07:04:21;99847.78;;;27.44;54.54
10310;BME280;5200;43.236;27.986;2022-09-30T07:06:49;99855.69;;;27.50;54.27
10310;BME280;5200;43.236;27.986;2022-09-30T07:09:16;99852.28;;;27.60;53.53
10310;BME280;5200;43.236;27.986;2022-09-30T07:11:43;99856.34;;;27.62;52.64
10310;BME280;5200;43.236;27.986;2022-09-30T07:14:10;99855.22;;;27.58;51.93
10310;BME280;5200;43.236;27.986;2022-09-30T07:16:38;99863.13;;;27.65;52.55
10310;BME280;5200;43.236;27.986;2022-09-30T07:19:06;99861.41;;;27.81;51.41
10310;BME280;5200;43.236;27.986;2022-09-30T07:21:33;99867.16;;;27.85;51.00
10310;BME280;5200;43.236;27.986;2022-09-30T07:24:00;99868.78;;;27.86;50.22
10310;BME280;5200;43.236;27.986;2022-09-30T07:26:27;99873.50;;;27.73;50.64
10310;BME280;5200;43.236;27.986;2022-09-30T07:28:55;99867.97;;;27.63;50.46
10310;BME280;5200;43.236;27.986;2022-09-30T07:31:23;99877.09;;;27.57;50.44
10310;BME280;5200;43.236;27.986;2022-09-30T07:33:50;99870.13;;;27.61;50.28
10310;BME280;5200;43.236;27.986;2022-09-30T07:36:21;99864.59;;;27.51;49.23
10310;BME280;5200;43.236;27.986;2022-09-30T07:38:52;99864.97;;;27.37;49.98
10310;BME280;5200;43.236;27.986;2022-09-30T07:41:23;99856.75;;;27.27;50.28
10310;BME280;5200;43.236;27.986;2022-09-30T07:43:52;99866.63;;;27.38;49.30
10310;BME280;5200;43.236;27.986;2022-09-30T07:46:22;99865.34;;;27.46;49.24
10310;BME280;5200;43.236;27.986;2022-09-30T07:48:51;99875.97;;;27.53;49.30
10310;BME280;5200;43.236;27.986;2022-09-30T07:51:24;99870.06;;;27.56;49.19
10310;BME280;5200;43.236;27.986;2022-09-30T07:53:53;99866.31;;;27.57;50.35
10310;BME280;5200;43.236;27.986;2022-09-30T07:56:21;99862.97;;;27.50;49.42
10310;BME280;5200;43.236;27.986;2022-09-30T07:58:52;99864.44;;;27.35;50.30
10310;BME280;5200;43.236;27.986;2022-09-30T08:01:20;99860.22;;;27.45;51.08
10310;BME280;5200;43.236;27.986;2022-09-30T08:03:47;99858.69;;;27.54;50.98
10310;BME280;5200;43.236;27.986;2022-09-30T08:06:17;99866.72;;;27.49;50.86
10310;BME280;5200;43.236;27.986;2022-09-30T08:08:46;99871.72;;;27.18;50.96
10310;BME280;5200;43.236;27.986;2022-09-30T08:11:13;99871.44;;;27.14;50.84
10310;BME280;5200;43.236;27.986;2022-09-30T08:13:40;99879.53;;;27.14;51.88
10310;BME280;5200;43.236;27.986;2022-09-30T08:16:07;99875.97;;;26.92;51.58
10310;BME280;5200;43.236;27.986;2022-09-30T08:18:34;99870.94;;;26.62;51.31
10310;BME280;5200;43.236;27.986;2022-09-30T08:21:02;99873.84;;;26.43;51.19
10310;BME280;5200;43.236;27.986;2022-09-30T08:23:30;99869.63;;;26.47;51.54
10310;BME280;5200;43.236;27.986;2022-09-30T08:26:02;99881.81;;;26.67;51.45
10310;BME280;5200;43.236;27.986;2022-09-30T08:28:29;99880.94;;;26.61;51.87
10310;BME280;5200;43.236;27.986;2022-09-30T08:31:08;99882.38;;;26.69;51.81
10310;BME280;5200;43.236;27.986;2022-09-30T08:33:36;99889.25;;;26.76;51.39
10310;BME280;5200;43.236;27.986;2022-09-30T08:36:04;99882.06;;;26.65;51.56
10310;BME280;5200;43.236;27.986;2022-09-30T08:38:31;99883.09;;;26.47;51.75
10310;BME280;5200;43.236;27.986;2022-09-30T08:41:10;99880.66;;;26.46;51.70
10310;BME280;5200;43.236;27.986;2022-09-30T08:43:44;99881.56;;;26.68;51.84
10310;BME280;5200;43.236;27.986;2022-09-30T08:46:27;99879.28;;;26.77;51.04
10310;BME280;5200;43.236;27.986;2022-09-30T08:49:02;99890.97;;;26.49;51.16
10310;BME280;5200;43.236;27.986;2022-09-30T08:51:36;99899.84;;;26.32;52.34
10310;BME280;5200;43.236;27.986;2022-09-30T08:54:08;99907.28;;;26.25;51.67
10310;BME280;5200;43.236;27.986;2022-09-30T08:56:38;99917.66;;;26.33;52.14
10310;BME280;5200;43.236;27.986;2022-09-30T08:59:11;99911.06;;;26.41;51.65
10310;BME280;5200;43.236;27.986;2022-09-30T09:01:44;99921.75;;;26.36;51.30
10310;BME280;5200;43.236;27.986;2022-09-30T09:04:12;99922.81;;;26.35;52.37
10310;BME280;5200;43.236;27.986;2022-09-30T09:06:48;99913.94;;;26.51;52.54
10310;BME280;5200;43.236;27.986;2022-09-30T09:09:30;99913.94;;;26.51;52.74
10310;BME280;5200;43.236;27.986;2022-09-30T09:12:11;99920.94;;;26.52;53.43
10310;BME280;5200;43.236;27.986;2022-09-30T09:14:50;99917.81;;;26.27;53.42
10310;BME280;5200;43.236;27.986;2022-09-30T09:17:36;99923.81;;;26.46;54.02
10310;BME280;5200;43.236;27.986;2022-09-30T09:20:12;99933.91;;;26.67;53.67
10310;BME280;5200;43.236;27.986;2022-09-30T09:22:40;99926.44;;;26.91;53.39
10310;BME280;5200;43.236;27.986;2022-09-30T09:25:12;99922.41;;;27.11;52.17
10310;BME280;5200;43.236;27.986;2022-09-30T09:27:47;99915.22;;;26.99;52.01
10310;BME280;5200;43.236;27.986;2022-09-30T09:30:19;99923.94;;;26.68;53.75
10310;BME280;5200;43.236;27.986;2022-09-30T09:32:51;99924.97;;;26.67;53.82
10310;BME280;5200;43.236;27.986;2022-09-30T09:35:38;99929.09;;;26.86;53.84
10310;BME280;5200;43.236;27.986;2022-09-30T09:38:14;99925.53;;;27.03;53.31
10310;BME280;5200;43.236;27.986;2022-09-30T09:40:59;99926.50;;;27.13;53.10
10310;BME280;5200;43.236;27.986;2022-09-30T09:43:42;99923.97;;;27.07;53.07
10310;BME280;5200;43.236;27.986;2022-09-30T09:46:19;99917.88;;;26.77;54.63
10310;BME280;5200;43.236;27.986;2022-09-30T09:48:48;99929.00;;;26.81;54.83
10310;BME280;5200;43.236;27.986;2022-09-30T09:51:20;99916.25;;;26.76;53.75
10310;BME280;5200;43.236;27.986;2022-09-30T09:53:51;99909.88;;;26.66;54.47
10310;BME280;5200;43.236;27.986;2022-09-30T09:56:26;99913.38;;;26.66;54.49
10310;BME280;5200;43.236;27.986;2022-09-30T09:59:06;99916.06;;;26.49;55.42
10310;BME280;5200;43.236;27.986;2022-09-30T10:01:35;99915.16;;;26.44;55.51
10310;BME280;5200;43.236;27.986;2022-09-30T10:04:15;99916.72;;;26.56;55.54
10310;BME280;5200;43.236;27.986;2022-09-30T10:06:54;99911.09;;;26.75;55.29
10310;BME280;5200;43.236;27.986;2022-09-30T10:09:29;99905.75;;;26.80;55.09
10310;BME280;5200;43.236;27.986;2022-09-30T10:12:26;99909.38;;;26.69;55.26
10310;BME280;5200;43.236;27.986;2022-09-30T10:15:04;99904.91;;;26.58;56.27
10310;BME280;5200;43.236;27.986;2022-09-30T10:17:37;99901.16;;;26.30;58.43
10310;BME280;5200;43.236;27.986;2022-09-30T10:20:07;99908.19;;;26.31;59.03
10310;BME280;5200;43.236;27.986;2022-09-30T10:22:43;99904.19;;;26.50;57.41
10310;BME280;5200;43.236;27.986;2022-09-30T10:25:17;99911.19;;;26.63;57.39
10310;BME280;5200;43.236;27.986;2022-09-30T10:27:53;99914.09;;;26.62;59.20
10310;BME280;5200;43.236;27.986;2022-09-30T10:30:37;99912.91;;;26.24;61.84
10310;BME280;5200;43.236;27.986;2022-09-30T10:33:16;99908.63;;;25.94;63.27
10310;BME280;5200;43.236;27.986;2022-09-30T10:35:52;99901.38;;;25.83;64.34
10310;BME280;5200;43.236;27.986;2022-09-30T10:38:19;99905.44;;;25.97;64.16
10310;BME280;5200;43.236;27.986;2022-09-30T10:40:48;99905.34;;;25.92;63.42
10310;BME280;5200;43.236;27.986;2022-09-30T10:43:25;99909.91;;;25.80;63.28
10310;BME280;5200;43.236;27.986;2022-09-30T10:45:54;99906.28;;;25.86;62.25
10310;BME280;5200;43.236;27.986;2022-09-30T10:48:32;99908.78;;;25.76;61.50
10310;BME280;5200;43.236;27.986;2022-09-30T10:50:59;99905.78;;;25.60;61.39
10310;BME280;5200;43.236;27.986;2022-09-30T10:53:28;99896.59;;;25.33;61.25
10310;BME280;5200;43.236;27.986;2022-09-30T10:55:57;99898.94;;;25.17;62.43
10310;BME280;5200;43.236;27.986;2022-09-30T10:58:33;99900.56;;;25.42;62.41
10310;BME280;5200;43.236;27.986;2022-09-30T11:01:11;99897.22;;;25.63;60.97
10310;BME280;5200;43.236;27.986;2022-09-30T11:03:48;99905.00;;;25.77;60.19
10310;BME280;5200;43.236;27.986;2022-09-30T11:06:19;99902.75;;;25.85;60.34
10310;BME280;5200;43.236;27.986;2022-09-30T11:08:52;99898.69;;;25.83;59.85
10310;BME280;5200;43.236;27.986;2022-09-30T11:11:24;99903.63;;;25.74;59.71
10310;BME280;5200;43.236;27.986;2022-09-30T11:13:55;99902.88;;;25.50;60.08
10310;BME280;5200;43.236;27.986;2022-09-30T11:16:28;99907.84;;;25.29;59.05
10310;BME280;5200;43.236;27.986;2022-09-30T11:19:02;99904.22;;;25.12;59.60
10310;BME280;5200;43.236;27.986;2022-09-30T11:21:36;99908.19;;;25.09;58.23
10310;BME280;5200;43.236;27.986;2022-09-30T11:24:19;99913.00;;;25.07;58.72
10310;BME280;5200;43.236;27.986;2022-09-30T11:26:53;99907.25;;;25.04;58.56
10310;BME280;5200;43.236;27.986;2022-09-30T11:32:28;99912.63;;;25.04;59.45
10310;BME280;5200;43.236;27.986;2022-09-30T11:35:06;99912.16;;;24.95;59.97
10310;BME280;5200;43.236;27.986;2022-09-30T11:37:48;99920.47;;;24.94;59.91
10310;BME280;5200;43.236;27.986;2022-09-30T11:40:36;99923.19;;;25.05;58.25
10310;BME280;5200;43.236;27.986;2022-09-30T11:43:11;99921.88;;;25.08;57.15
10310;BME280;5200;43.236;27.986;2022-09-30T11:46:01;99924.47;;;25.03;57.13
10310;BME280;5200;43.236;27.986;2022-09-30T11:48:42;99920.47;;;24.94;55.98
10310;BME280;5200;43.236;27.986;2022-09-30T11:51:19;99924.81;;;24.83;56.23
10310;BME280;5200;43.236;27.986;2022-09-30T11:53:57;99934.03;;;24.75;55.73
10310;BME280;5200;43.236;27.986;2022-09-30T11:56:37;99929.56;;;24.57;55.26
10310;BME280;5200;43.236;27.986;2022-09-30T11:59:14;99928.69;;;24.45;54.91
10310;BME280;5200;43.236;27.986;2022-09-30T12:01:46;99930.03;;;24.24;55.21
10310;BME280;5200;43.236;27.986;2022-09-30T12:04:19;99923.72;;;24.18;55.43
10310;BME280;5200;43.236;27.986;2022-09-30T12:06:51;99919.97;;;24.19;56.16
10310;BME280;5200;43.236;27.986;2022-09-30T12:09:23;99925.50;;;24.36;56.15
10310;BME280;5200;43.236;27.986;2022-09-30T12:11:55;99931.44;;;24.57;55.74
10310;BME280;5200;43.236;27.986;2022-09-30T12:14:29;99933.34;;;24.68;55.88
10310;BME280;5200;43.236;27.986;2022-09-30T12:17:01;99927.97;;;24.80;55.75
10310;BME280;5200;43.236;27.986;2022-09-30T12:19:33;99927.28;;;24.96;55.70
10310;BME280;5200;43.236;27.986;2022-09-30T12:22:06;99920.72;;;25.04;54.85
10310;BME280;5200;43.236;27.986;2022-09-30T12:24:37;99921.19;;;25.01;54.28
10310;BME280;5200;43.236;27.986;2022-09-30T12:27:13;99936.41;;;25.07;53.88
10310;BME280;5200;43.236;27.986;2022-09-30T12:29:46;99928.88;;;25.09;53.82
10310;BME280;5200;43.236;27.986;2022-09-30T12:32:53;99926.78;;;25.11;53.94
10310;BME280;5200;43.236;27.986;2022-09-30T12:38:49;99930.28;;;24.88;54.51
10310;BME280;5200;43.236;27.986;2022-09-30T12:41:30;99927.97;;;24.92;55.94
10310;BME280;5200;43.236;27.986;2022-09-30T12:44:23;99933.34;;;24.92;58.86
10310;BME280;5200;43.236;27.986;2022-09-30T12:47:02;99936.94;;;24.74;60.49
10310;BME280;5200;43.236;27.986;2022-09-30T12:49:37;99942.00;;;24.70;60.87
10310;BME280;5200;43.236;27.986;2022-09-30T12:52:06;99940.72;;;24.73;61.02
10310;BME280;5200;43.236;27.986;2022-09-30T12:54:41;99940.00;;;24.77;61.13
10310;BME280;5200;43.236;27.986;2022-09-30T12:57:17;99947.59;;;24.80;61.06
10310;BME280;5200;43.236;27.986;2022-09-30T12:59:51;99938.03;;;24.84;61.10
10310;BME280;5200;43.236;27.986;2022-09-30T13:02:30;99946.56;;;24.81;61.39
10310;BME280;5200;43.236;27.986;2022-09-30T13:08:46;99943.72;;;24.64;62.11
10310;BME280;5200;43.236;27.986;2022-09-30T13:11:37;99938.47;;;24.58;62.49
10310;BME280;5200;43.236;27.986;2022-09-30T13:17:25;99948.31;;;24.34;63.16
10310;BME280;5200;43.236;27.986;2022-09-30T13:19:53;99957.41;;;24.21;63.36
10310;BME280;5200;43.236;27.986;2022-09-30T13:22:57;99944.84;;;24.15;64.10
10310;BME280;5200;43.236;27.986;2022-09-30T13:25:24;99952.78;;;24.10;64.59
10310;BME280;5200;43.236;27.986;2022-09-30T13:31:13;99963.19;;;24.06;65.24
10310;BME280;5200;43.236;27.986;2022-09-30T13:33:45;99969.84;;;24.03;65.18
10310;BME280;5200;43.236;27.986;2022-09-30T13:36:28;99963.88;;;24.01;65.67
10310;BME280;5200;43.236;27.986;2022-09-30T13:42:05;99957.16;;;23.92;66.86
10310;BME280;5200;43.236;27.986;2022-09-30T13:44:38;99962.63;;;23.86;67.21